createdAt,value
2022-11-12T00:00:02.883Z,6.85
2022-11-12T00:02:29.143Z,7.32
2022-11-12T00:04:55.410Z,6.70
2022-11-12T00:07:21.644Z,6.53
2022-11-12T00:09:47.892Z,6.47
2022-11-12T00:12:14.154Z,7.30
2022-11-12T00:14:40.425Z,7.78
2022-11-12T00:17:06.682Z,7.78
2022-11-12T00:19:32.928Z,7.07
2022-11-12T00:21:59.273Z,8.20
2022-11-12T00:24:25.743Z,8.50
2022-11-12T00:26:52.063Z,9.43
2022-11-12T00:29:18.355Z,7.90
2022-11-12T00:31:44.599Z,8.20
2022-11-12T00:34:10.931Z,9.23
2022-11-12T00:36:37.276Z,8.38
2022-11-12T00:39:03.884Z,8.88
2022-11-12T00:41:30.150Z,7.80
2022-11-12T00:43:56.561Z,7.75
2022-11-12T00:46:22.833Z,8.82
2022-11-12T00:48:49.087Z,7.95
2022-11-12T00:51:15.347Z,8.18
2022-11-12T00:53:41.625Z,8.55
2022-11-12T00:56:08.145Z,8.70
2022-11-12T00:58:35.640Z,8.40
2022-11-12T01:01:06.461Z,8.40
2022-11-12T01:06:05.896Z,9.70
2022-11-12T01:08:32.245Z,9.13
2022-11-12T01:11:24.912Z,8.77
2022-11-12T01:13:55.680Z,8.93
2022-11-12T01:16:22.947Z,9.82
2022-11-12T01:18:52.507Z,9.20
2022-11-12T01:21:18.785Z,9.63
2022-11-12T01:23:45.081Z,9.32
2022-11-12T01:26:13.029Z,9.70
2022-11-12T01:28:39.412Z,9.57
2022-11-12T01:31:12.554Z,10.32
2022-11-12T01:33:39.244Z,9.95
2022-11-12T01:36:06.429Z,9.88
2022-11-12T01:38:36.439Z,10.18
2022-11-12T01:41:02.981Z,10.53
2022-11-12T01:43:29.734Z,11.98
2022-11-12T01:45:56.882Z,10.73
2022-11-12T01:48:28.423Z,11.95
2022-11-12T01:50:55.188Z,11.38
2022-11-12T01:53:22.893Z,10.77
2022-11-12T01:55:49.272Z,10.57
2022-11-12T01:58:16.127Z,10.73
2022-11-12T02:00:42.476Z,11.45
2022-11-12T02:03:11.514Z,11.20
2022-11-12T02:05:39.053Z,9.90
2022-11-12T02:08:05.960Z,9.88
2022-11-12T02:10:32.245Z,9.35
2022-11-12T02:13:17.278Z,9.07
2022-11-12T02:15:43.626Z,10.25
2022-11-12T02:18:09.938Z,9.18
2022-11-12T02:20:37.300Z,9.70
2022-11-12T02:23:04.283Z,8.95
2022-11-12T02:25:30.744Z,8.45
2022-11-12T02:27:58.295Z,8.82
2022-11-12T02:30:34.467Z,9.70
2022-11-12T02:33:00.901Z,9.70
2022-11-12T02:35:27.440Z,9.63
2022-11-12T02:37:53.964Z,10.40
2022-11-12T02:40:20.220Z,10.73
2022-11-12T02:42:46.524Z,10.80
2022-11-12T02:45:13.105Z,10.70
2022-11-12T02:47:39.438Z,11.57
2022-11-12T02:50:05.963Z,11.32
2022-11-12T02:52:32.605Z,12.38
2022-11-12T02:54:58.896Z,12.27
2022-11-12T02:57:25.213Z,11.85
2022-11-12T02:59:51.508Z,11.60
2022-11-12T03:02:18.036Z,11.05
2022-11-12T03:04:49.149Z,11.75
2022-11-12T03:07:15.956Z,11.70
2022-11-12T03:09:42.300Z,11.13
2022-11-12T03:12:08.811Z,11.82
2022-11-12T03:14:35.072Z,11.55
2022-11-12T03:17:01.332Z,11.60
2022-11-12T03:19:27.602Z,10.93
2022-11-12T03:21:53.889Z,11.15
2022-11-12T03:24:20.167Z,11.20
2022-11-12T03:26:46.444Z,11.52
2022-11-12T03:29:12.744Z,10.57
2022-11-12T03:31:39.034Z,10.73
2022-11-12T03:34:05.324Z,11.60
2022-11-12T03:36:31.706Z,11.65
2022-11-12T03:38:58.006Z,12.10
2022-11-12T03:41:24.263Z,11.18
2022-11-12T03:43:50.517Z,10.98
2022-11-12T03:46:16.793Z,10.63
2022-11-12T03:48:43.164Z,11.30
2022-11-12T03:51:09.876Z,12.13
2022-11-12T03:53:36.181Z,11.68
2022-11-12T03:56:02.430Z,13.30
2022-11-12T03:58:29.058Z,12.57
2022-11-12T04:00:55.532Z,12.15
2022-11-12T04:03:21.893Z,12.15
2022-11-12T04:06:07.081Z,11.38
2022-11-12T04:08:36.123Z,12.80
2022-11-12T04:11:03.720Z,12.32
2022-11-12T04:13:31.217Z,12.23
2022-11-12T04:16:23.934Z,12.13
2022-11-12T04:19:09.719Z,11.27
2022-11-12T04:21:51.086Z,9.75
2022-11-12T04:24:36.136Z,10.73
2022-11-12T04:27:02.778Z,11.38
2022-11-12T04:29:47.943Z,11.82
2022-11-12T04:32:14.602Z,11.00
2022-11-12T04:34:40.906Z,11.95
2022-11-12T04:37:07.742Z,11.45
2022-11-12T04:39:34.034Z,12.45
2022-11-12T04:42:19.192Z,11.10
2022-11-12T04:45:01.370Z,10.82
2022-11-12T04:47:38.217Z,10.82
2022-11-12T04:50:06.603Z,10.88
2022-11-12T04:52:33.087Z,10.65
2022-11-12T04:54:59.457Z,11.00
2022-11-12T04:57:26.013Z,9.80
2022-11-12T04:59:52.327Z,11.07
2022-11-12T05:02:18.647Z,11.52
2022-11-12T05:04:44.940Z,10.98
2022-11-12T05:07:11.613Z,10.52
2022-11-12T05:09:37.944Z,11.95
2022-11-12T05:12:04.312Z,10.82
2022-11-12T05:14:30.648Z,11.23
2022-11-12T05:16:56.989Z,10.88
2022-11-12T05:19:23.308Z,12.40
2022-11-12T05:22:17.404Z,11.05
2022-11-12T05:24:48.416Z,11.25
2022-11-12T05:27:16.447Z,12.73
2022-11-12T05:29:42.863Z,13.57
2022-11-12T05:32:10.489Z,12.80
2022-11-12T05:34:36.838Z,13.75
2022-11-12T05:37:04.457Z,13.55
2022-11-12T05:39:30.721Z,12.93
2022-11-12T05:42:13.830Z,13.35
2022-11-12T05:44:40.917Z,13.70
2022-11-12T05:47:07.387Z,15.15
2022-11-12T05:49:33.662Z,13.10
2022-11-12T05:51:59.910Z,13.43
2022-11-12T05:54:26.258Z,12.80
2022-11-12T05:56:53.529Z,14.23
2022-11-12T05:59:19.835Z,13.50
2022-11-12T06:01:46.156Z,14.07
2022-11-12T06:04:15.920Z,13.35
2022-11-12T06:06:42.621Z,13.38
2022-11-12T06:09:09.546Z,13.18
2022-11-12T06:11:36.396Z,12.93
2022-11-12T06:14:03.580Z,14.70
2022-11-12T06:16:30.283Z,14.63
2022-11-12T06:18:56.605Z,15.48
2022-11-12T06:21:22.941Z,13.25
2022-11-12T06:23:51.122Z,11.75
2022-11-12T06:26:17.471Z,11.20
2022-11-12T06:28:43.870Z,11.30
2022-11-12T06:31:10.287Z,11.20
2022-11-12T06:33:36.588Z,11.30
2022-11-12T06:36:04.466Z,12.23
2022-11-12T06:38:34.864Z,11.23
2022-11-12T06:41:01.315Z,12.07
2022-11-12T06:43:28.765Z,11.55
2022-11-12T06:45:58.114Z,11.45
2022-11-12T06:48:24.587Z,10.63
2022-11-12T06:50:51.011Z,11.90
2022-11-12T06:53:17.437Z,11.95
2022-11-12T06:55:43.786Z,10.85
2022-11-12T06:58:10.095Z,11.02
2022-11-12T07:00:36.428Z,10.98
2022-11-12T07:03:06.816Z,10.77
2022-11-12T07:05:35.411Z,10.43
2022-11-12T07:08:01.695Z,9.63
2022-11-12T07:10:27.975Z,9.60
2022-11-12T07:12:54.522Z,10.77
2022-11-12T07:15:20.797Z,11.40
2022-11-12T07:17:47.141Z,11.38
2022-11-12T07:20:13.468Z,11.10
2022-11-12T07:22:39.734Z,10.70
2022-11-12T07:25:06.231Z,10.82
2022-11-12T07:27:32.560Z,11.68
2022-11-12T07:29:58.793Z,10.40
2022-11-12T07:32:25.112Z,9.80
2022-11-12T07:34:51.425Z,9.93
2022-11-12T07:37:17.781Z,10.90
2022-11-12T07:39:44.069Z,10.48
2022-11-12T07:42:10.325Z,9.90
2022-11-12T07:44:36.592Z,10.20
2022-11-12T07:47:02.853Z,9.43
2022-11-12T07:49:29.122Z,10.15
2022-11-12T07:51:55.395Z,9.60
2022-11-12T07:54:21.738Z,10.68
2022-11-12T07:56:48.029Z,9.20
2022-11-12T07:59:14.289Z,11.18
2022-11-12T08:01:41.393Z,9.98
2022-11-12T08:04:09.286Z,9.57
2022-11-12T08:06:36.344Z,9.88
2022-11-12T08:09:04.908Z,11.25
2022-11-12T08:11:32.097Z,10.73
2022-11-12T08:13:58.349Z,10.75
2022-11-12T08:16:24.688Z,10.90
2022-11-12T08:18:51.402Z,11.35
2022-11-12T08:21:18.295Z,12.15
2022-11-12T08:23:44.930Z,11.48
2022-11-12T08:26:12.482Z,12.43
2022-11-12T08:28:39.281Z,11.85
2022-11-12T08:31:16.300Z,15.13
2022-11-12T08:33:43.124Z,13.82
2022-11-12T08:36:12.894Z,15.13
2022-11-12T08:38:39.711Z,15.50
2022-11-12T08:41:07.635Z,13.45
2022-11-12T08:43:34.300Z,13.57
2022-11-12T08:46:01.402Z,15.88
2022-11-12T08:48:28.772Z,13.98
2022-11-12T08:50:55.864Z,12.80
2022-11-12T08:53:23.011Z,12.88
2022-11-12T08:55:49.478Z,17.60
2022-11-12T08:58:15.816Z,14.35
2022-11-12T09:00:43.374Z,18.13
2022-11-12T09:03:17.104Z,16.27
2022-11-12T09:05:43.717Z,17.73
2022-11-12T09:08:12.065Z,18.17
2022-11-12T09:10:38.926Z,17.75
2022-11-12T09:13:05.576Z,17.95
2022-11-12T09:15:39.229Z,17.10
2022-11-12T09:18:07.130Z,15.93
2022-11-12T09:20:33.475Z,17.95
2022-11-12T09:23:08.458Z,16.75
2022-11-12T09:25:34.903Z,15.13
2022-11-12T09:28:19.447Z,13.40
2022-11-12T09:30:46.906Z,14.77
2022-11-12T09:33:13.913Z,15.38
2022-11-12T09:35:40.273Z,14.65
2022-11-12T09:38:06.546Z,12.88
2022-11-12T09:41:02.379Z,13.07
2022-11-12T09:43:37.577Z,14.43
2022-11-12T09:46:26.643Z,13.98
2022-11-12T09:48:58.469Z,13.63
2022-11-12T09:51:33.685Z,12.77
2022-11-12T09:54:02.691Z,14.02
2022-11-12T09:56:29.782Z,11.63
2022-11-12T09:58:56.156Z,12.65
2022-11-12T10:01:24.722Z,11.93
2022-11-12T10:03:52.454Z,11.57
2022-11-12T10:06:21.656Z,11.68
2022-11-12T10:09:06.948Z,10.73
2022-11-12T10:12:03.797Z,11.55
2022-11-12T10:14:49.681Z,10.20
2022-11-12T10:17:24.646Z,11.05
2022-11-12T10:20:09.585Z,10.13
2022-11-12T10:22:38.961Z,10.00
2022-11-12T10:25:18.895Z,9.30
2022-11-12T10:27:45.536Z,9.88
2022-11-12T10:30:16.901Z,9.77
2022-11-12T10:32:44.973Z,9.90
2022-11-12T10:35:13.023Z,9.20
2022-11-12T10:37:45.669Z,9.30
2022-11-12T10:40:21.164Z,9.02
2022-11-12T10:43:13.798Z,8.52
2022-11-12T10:45:40.126Z,9.35
2022-11-12T10:48:24.474Z,9.88
2022-11-12T10:50:53.359Z,10.73
2022-11-12T10:53:31.631Z,8.88
2022-11-12T10:55:59.608Z,8.57
2022-11-12T10:58:26.332Z,8.77
2022-11-12T11:01:07.330Z,9.15
2022-11-12T11:03:35.005Z,8.05
2022-11-12T11:06:04.431Z,9.23
2022-11-12T11:08:41.250Z,8.65
2022-11-12T11:11:16.583Z,9.13
2022-11-12T11:13:50.217Z,9.07
2022-11-12T11:16:22.169Z,9.32
2022-11-12T11:18:50.750Z,8.55
2022-11-12T11:21:25.840Z,9.02
2022-11-12T11:23:52.348Z,9.10
2022-11-12T11:26:27.827Z,8.10
2022-11-12T11:29:15.955Z,8.88
2022-11-12T11:31:54.432Z,8.07
2022-11-12T11:34:27.173Z,7.90
2022-11-12T11:36:56.540Z,8.38
2022-11-12T11:39:30.304Z,7.70
2022-11-12T11:42:02.722Z,7.10
2022-11-12T11:44:28.987Z,7.78
2022-11-12T11:46:55.353Z,7.53
2022-11-12T11:49:30.791Z,7.15
2022-11-12T11:52:02.405Z,7.60
2022-11-12T11:54:31.451Z,7.55
2022-11-12T11:56:58.667Z,7.85
2022-11-12T11:59:27.963Z,6.45
2022-11-12T12:02:03.828Z,7.13
2022-11-12T12:04:47.219Z,6.75
2022-11-12T12:07:33.630Z,6.88
2022-11-12T12:10:12.050Z,7.38
2022-11-12T12:12:50.634Z,6.90
2022-11-12T12:15:16.903Z,7.05
2022-11-12T12:17:54.096Z,6.47
2022-11-12T12:20:22.766Z,6.30
2022-11-12T12:22:56.928Z,5.90
2022-11-12T12:25:25.271Z,6.20
2022-11-12T12:27:55.912Z,5.50
2022-11-12T12:30:25.411Z,4.97
2022-11-12T12:32:56.917Z,5.18
2022-11-12T12:35:28.358Z,5.20
2022-11-12T12:38:13.527Z,5.10
2022-11-12T12:40:53.980Z,5.60
2022-11-12T12:43:24.722Z,4.82
2022-11-12T12:48:21.525Z,5.30
2022-11-12T12:50:48.567Z,4.60
2022-11-12T12:53:15.118Z,4.68
2022-11-12T12:55:42.685Z,5.07
2022-11-12T12:58:21.494Z,5.03
2022-11-12T13:00:52.223Z,5.05
2022-11-12T13:03:37.088Z,4.68
2022-11-12T13:06:22.025Z,5.00
2022-11-12T13:08:49.628Z,5.20
2022-11-12T13:11:56.109Z,5.88
2022-11-12T13:14:31.361Z,6.20
2022-11-12T13:16:59.275Z,5.40
2022-11-12T13:19:39.028Z,5.70
2022-11-12T13:22:17.391Z,4.97
2022-11-12T13:25:02.651Z,5.07
2022-11-12T13:27:44.380Z,5.85
2022-11-12T13:30:13.752Z,5.75
2022-11-12T13:32:43.467Z,5.95
2022-11-12T13:35:20.912Z,6.22
2022-11-12T13:37:49.889Z,6.00
2022-11-12T13:40:19.561Z,6.47
2022-11-12T13:42:48.758Z,6.50
2022-11-12T13:45:19.268Z,6.65
2022-11-12T13:47:45.687Z,6.43
2022-11-12T13:50:17.719Z,6.57
2022-11-12T13:52:44.057Z,6.93
2022-11-12T13:55:13.507Z,7.15
2022-11-12T13:57:39.852Z,6.75
2022-11-12T14:00:10.704Z,7.35
2022-11-12T14:02:41.459Z,6.53
2022-11-12T14:05:15.421Z,7.18
2022-11-12T14:07:53.896Z,7.88
2022-11-12T14:10:43.428Z,9.10
2022-11-12T14:13:21.727Z,9.48
2022-11-12T14:16:03.384Z,8.98
2022-11-12T14:18:35.872Z,9.05
2022-11-12T14:21:06.743Z,8.73
2022-11-12T14:23:37.319Z,7.68
2022-11-12T14:26:03.830Z,8.32
2022-11-12T14:28:34.259Z,7.05
2022-11-12T14:31:01.779Z,6.38
2022-11-12T14:33:29.445Z,6.18
2022-11-12T14:36:13.166Z,6.47
2022-11-12T14:38:39.405Z,5.28
2022-11-12T14:41:10.228Z,6.15
2022-11-12T14:44:11.147Z,6.13
2022-11-12T14:46:38.750Z,5.63
2022-11-12T14:49:12.027Z,5.70
2022-11-12T14:51:42.432Z,5.93
2022-11-12T14:54:13.928Z,5.75
2022-11-12T14:56:42.114Z,5.20
2022-11-12T14:59:11.229Z,5.25
2022-11-12T15:04:25.845Z,5.65
2022-11-12T15:06:56.126Z,5.40
2022-11-12T15:09:33.175Z,6.30
2022-11-12T15:11:59.538Z,7.10
2022-11-12T15:14:26.047Z,6.03
2022-11-12T15:16:52.437Z,6.00
2022-11-12T15:19:20.970Z,6.95
2022-11-12T15:21:48.757Z,7.90
2022-11-12T15:24:31.684Z,7.57
2022-11-12T15:26:59.605Z,7.45
2022-11-12T15:29:30.915Z,7.15
2022-11-12T15:31:57.228Z,7.85
2022-11-12T15:34:23.448Z,7.45
2022-11-12T15:36:49.764Z,7.07
2022-11-12T15:39:16.159Z,7.22
2022-11-12T15:41:42.526Z,7.63
2022-11-12T15:44:09.828Z,8.23
2022-11-12T15:46:36.866Z,7.22
2022-11-12T15:49:03.484Z,7.68
2022-11-12T15:51:29.836Z,7.28
2022-11-12T15:53:56.105Z,7.10
2022-11-12T15:56:23.792Z,6.75
2022-11-12T15:58:50.153Z,7.38
2022-11-12T16:01:16.456Z,8.68
2022-11-12T16:03:47.485Z,6.80
2022-11-12T16:06:13.773Z,8.35
2022-11-12T16:08:40.103Z,8.38
2022-11-12T16:11:26.471Z,9.18
2022-11-12T16:13:52.771Z,9.02
2022-11-12T16:16:19.034Z,9.48
2022-11-12T16:18:45.310Z,11.23
2022-11-12T16:21:12.855Z,10.20
2022-11-12T16:23:40.792Z,10.85
2022-11-12T16:26:08.581Z,10.63
2022-11-12T16:28:35.058Z,10.93
2022-11-12T16:31:01.365Z,10.65
2022-11-12T16:33:27.945Z,9.98
2022-11-12T16:35:54.434Z,10.75
2022-11-12T16:38:21.412Z,9.68
2022-11-12T16:40:47.708Z,9.90
2022-11-12T16:43:13.955Z,9.65
2022-11-12T16:45:41.800Z,9.82
2022-11-12T16:48:18.921Z,9.57
2022-11-12T16:50:45.588Z,9.27
2022-11-12T16:53:11.879Z,10.27
2022-11-12T16:55:38.266Z,9.18
2022-11-12T16:58:04.625Z,9.45
2022-11-12T17:00:30.888Z,10.05
2022-11-12T17:02:57.209Z,9.95
2022-11-12T17:05:24.677Z,9.68
2022-11-12T17:07:56.023Z,8.98
2022-11-12T17:10:25.488Z,9.85
2022-11-12T17:12:52.241Z,12.40
2022-11-12T17:15:18.896Z,12.98
2022-11-12T17:17:45.530Z,11.55
2022-11-12T17:20:11.966Z,12.10
2022-11-12T17:22:38.246Z,12.65
2022-11-12T17:25:05.433Z,16.83
2022-11-12T17:27:31.756Z,13.85
2022-11-12T17:29:58.021Z,13.48
2022-11-12T17:32:24.551Z,14.82
2022-11-12T17:34:50.799Z,16.48
2022-11-12T17:37:17.106Z,15.02
2022-11-12T17:39:44.425Z,14.40
2022-11-12T17:42:10.768Z,14.30
2022-11-12T17:44:37.105Z,12.73
2022-11-12T17:47:04.004Z,12.25
2022-11-12T17:49:30.274Z,11.65
2022-11-12T17:51:56.553Z,11.63
2022-11-12T17:54:25.847Z,10.68
2022-11-12T17:56:52.170Z,11.57
2022-11-12T17:59:18.461Z,10.15
2022-11-12T18:01:44.756Z,11.20
2022-11-12T18:04:11.184Z,12.95
2022-11-12T18:06:37.551Z,11.57
2022-11-12T18:09:08.304Z,10.70
2022-11-12T18:11:41.855Z,11.90
2022-11-12T18:14:08.545Z,11.00
2022-11-12T18:16:34.812Z,11.45
2022-11-12T18:19:01.362Z,10.90
2022-11-12T18:21:27.820Z,10.00
2022-11-12T18:23:54.159Z,10.25
2022-11-12T18:26:20.905Z,10.70
2022-11-12T18:28:54.334Z,10.13
2022-11-12T18:31:21.103Z,10.70
2022-11-12T18:33:47.673Z,10.90
2022-11-12T18:36:16.898Z,10.82
2022-11-12T18:38:43.412Z,11.45
2022-11-12T18:41:13.870Z,11.85
2022-11-12T18:43:40.169Z,12.25
2022-11-12T18:46:07.462Z,12.50
2022-11-12T18:48:34.455Z,11.73
2022-11-12T18:51:05.313Z,11.43
2022-11-12T18:56:02.270Z,10.90
2022-11-12T18:58:34.636Z,12.43
2022-11-12T19:01:21.477Z,11.82
2022-11-12T19:03:48.452Z,11.68
2022-11-12T19:06:14.796Z,11.48
2022-11-12T19:08:41.517Z,12.80
2022-11-12T19:11:09.035Z,10.82
2022-11-12T19:13:35.952Z,11.48
2022-11-12T19:16:06.681Z,12.07
2022-11-12T19:18:33.229Z,12.20
2022-11-12T19:21:00.331Z,12.95
2022-11-12T19:23:27.374Z,14.32
2022-11-12T19:25:53.804Z,14.02
2022-11-12T19:28:20.062Z,14.43
2022-11-12T19:30:46.349Z,16.27
2022-11-12T19:33:12.607Z,15.77
2022-11-12T19:35:39.589Z,14.68
2022-11-12T19:38:05.860Z,16.98
2022-11-12T19:40:32.268Z,18.20
2022-11-12T19:42:58.538Z,17.30
2022-11-12T19:45:24.836Z,17.02
2022-11-12T19:47:51.874Z,17.50
2022-11-12T19:50:23.505Z,16.67
2022-11-12T19:52:52.870Z,15.27
2022-11-12T19:55:19.113Z,13.35
2022-11-12T19:57:45.569Z,12.63
2022-11-12T20:00:12.281Z,13.27
2022-11-12T20:02:38.569Z,14.48
2022-11-12T20:05:05.030Z,14.35
2022-11-12T20:07:31.287Z,16.30
2022-11-12T20:10:00.927Z,14.68
2022-11-12T20:12:29.832Z,15.90
2022-11-12T20:14:56.158Z,16.80
2022-11-12T20:17:22.426Z,16.05
2022-11-12T20:19:48.727Z,16.52
2022-11-12T20:22:15.066Z,17.50
2022-11-12T20:24:41.384Z,16.92
2022-11-12T20:27:07.849Z,16.98
2022-11-12T20:29:34.111Z,13.68
2022-11-12T20:32:00.433Z,13.63
2022-11-12T20:34:27.054Z,11.77
2022-11-12T20:36:54.373Z,11.10
2022-11-12T20:39:21.457Z,11.25
2022-11-12T20:41:48.857Z,11.35
2022-11-12T20:44:15.188Z,10.00
2022-11-12T20:46:41.465Z,9.50
2022-11-12T20:49:08.652Z,10.40
2022-11-12T20:51:35.869Z,9.52
2022-11-12T20:54:03.368Z,10.30
2022-11-12T20:56:30.265Z,10.52
2022-11-12T20:58:57.345Z,10.73
2022-11-12T21:01:24.411Z,9.90
2022-11-12T21:03:50.987Z,9.30
2022-11-12T21:06:19.296Z,9.05
2022-11-12T21:08:45.747Z,7.75
2022-11-12T21:11:16.301Z,7.45
2022-11-12T21:13:43.000Z,7.78
2022-11-12T21:16:09.852Z,7.95
2022-11-12T21:18:36.473Z,8.60
2022-11-12T21:21:05.031Z,10.60
2022-11-12T21:23:32.064Z,11.00
2022-11-12T21:26:01.812Z,11.10
2022-11-12T21:28:28.265Z,20.90
2022-11-12T21:31:00.757Z,24.75
2022-11-12T21:33:27.003Z,19.95
2022-11-12T21:35:53.487Z,20.38
2022-11-12T21:38:19.741Z,20.38
2022-11-12T21:40:45.984Z,19.77
2022-11-12T21:43:12.328Z,21.02
2022-11-12T21:45:43.801Z,22.75
2022-11-12T21:48:10.157Z,20.88
2022-11-12T21:50:36.415Z,23.10
2022-11-12T21:53:02.815Z,22.23
2022-11-12T21:55:29.068Z,22.77
2022-11-12T21:57:55.342Z,22.50
2022-11-12T22:00:41.631Z,20.90
2022-11-12T22:03:08.303Z,23.70
2022-11-12T22:05:35.796Z,26.42
2022-11-12T22:08:02.052Z,28.50
2022-11-12T22:10:28.299Z,29.00
2022-11-12T22:13:24.780Z,28.63
2022-11-12T22:15:40.868Z,28.17
2022-11-12T22:18:07.239Z,29.02
2022-11-12T22:20:33.634Z,27.05
2022-11-12T22:22:59.921Z,28.75
2022-11-12T22:25:27.121Z,32.15
2022-11-12T22:27:53.407Z,34.05
2022-11-12T22:30:19.683Z,33.00
2022-11-12T22:32:45.965Z,31.35
2022-11-12T22:35:12.275Z,26.95
2022-11-12T22:37:38.550Z,23.80
2022-11-12T22:40:09.147Z,25.13
2022-11-12T22:42:38.376Z,25.08
2022-11-12T22:45:04.879Z,25.08
2022-11-12T22:47:32.735Z,21.42
2022-11-12T22:49:58.989Z,22.25
2022-11-12T22:52:25.328Z,21.77
2022-11-12T22:54:51.577Z,19.00
2022-11-12T22:57:17.844Z,17.67
2022-11-12T22:59:44.198Z,18.00
2022-11-12T23:02:10.648Z,16.63
2022-11-12T23:04:36.996Z,16.08
2022-11-12T23:07:03.331Z,15.38
2022-11-12T23:09:29.620Z,16.25
2022-11-12T23:11:55.883Z,17.88
2022-11-12T23:14:22.250Z,17.75
2022-11-12T23:16:49.541Z,17.77
2022-11-12T23:19:15.803Z,18.08
2022-11-12T23:21:42.123Z,17.95
2022-11-12T23:24:08.411Z,18.10
2022-11-12T23:26:35.048Z,21.60
2022-11-12T23:29:01.690Z,19.48
2022-11-12T23:31:29.580Z,17.75
2022-11-12T23:33:57.139Z,15.18
2022-11-12T23:36:24.425Z,13.30
2022-11-12T23:38:53.683Z,12.93
2022-11-12T23:41:22.691Z,13.23
2022-11-12T23:43:49.680Z,13.15
2022-11-12T23:46:16.166Z,12.43
2022-11-12T23:48:42.435Z,12.75
2022-11-12T23:51:14.574Z,12.63
2022-11-12T23:53:41.246Z,12.60
2022-11-12T23:56:09.377Z,11.98
2022-11-12T23:58:36.838Z,11.63
